sensor_id;sensor_type;location;lat;lon;timestamp;P1;durP1;ratioP1;P2;durP2;ratioP2
53261;SDS011;39658;51.090;-1.786;2023-06-14T00:01:51;7.90;;;4.22;;
53261;SDS011;39658;51.090;-1.786;2023-06-14T00:04:18;7.95;;;4.38;;
53261;SDS011;39658;51.090;-1.786;2023-06-14T00:06:46;9.30;;;4.50;;
53261;SDS011;39658;51.090;-1.786;2023-06-14T00:09:13;7.47;;;3.85;;
53261;SDS011;39658;51.090;-1.786;2023-06-14T00:11:42;7.72;;;4.00;;
53261;SDS011;39658;51.090;-1.786;2023-06-14T00:14:09;7.88;;;4.45;;
53261;SDS011;39658;51.090;-1.786;2023-06-14T00:16:37;9.80;;;4.28;;
53261;SDS011;39658;51.090;-1.786;2023-06-14T00:19:07;9.32;;;4.00;;
53261;SDS011;39658;51.090;-1.786;2023-06-14T00:21:35;7.28;;;4.32;;
53261;SDS011;39658;51.090;-1.786;2023-06-14T00:24:03;8.13;;;3.88;;
53261;SDS011;39658;51.090;-1.786;2023-06-14T00:26:30;7.50;;;4.07;;
53261;SDS011;39658;51.090;-1.786;2023-06-14T00:28:57;9.13;;;4.07;;
53261;SDS011;39658;51.090;-1.786;2023-06-14T00:31:24;7.68;;;4.07;;
53261;SDS011;39658;51.090;-1.786;2023-06-14T00:33:52;9.10;;;4.55;;
53261;SDS011;39658;51.090;-1.786;2023-06-14T00:36:18;11.63;;;4.30;;
53261;SDS011;39658;51.090;-1.786;2023-06-14T00:38:45;9.60;;;3.50;;
53261;SDS011;39658;51.090;-1.786;2023-06-14T00:41:12;7.05;;;4.00;;
53261;SDS011;39658;51.090;-1.786;2023-06-14T00:43:39;8.93;;;4.22;;
53261;SDS011;39658;51.090;-1.786;2023-06-14T00:46:05;7.15;;;4.28;;
53261;SDS011;39658;51.090;-1.786;2023-06-14T00:48:32;6.05;;;3.03;;
53261;SDS011;39658;51.090;-1.786;2023-06-14T00:51:01;7.65;;;3.72;;
53261;SDS011;39658;51.090;-1.786;2023-06-14T00:53:29;8.57;;;4.38;;
53261;SDS011;39658;51.090;-1.786;2023-06-14T00:55:58;7.13;;;3.38;;
53261;SDS011;39658;51.090;-1.786;2023-06-14T00:58:26;10.25;;;4.70;;
53261;SDS011;39658;51.090;-1.786;2023-06-14T01:00:53;7.95;;;4.15;;
53261;SDS011;39658;51.090;-1.786;2023-06-14T01:03:21;9.25;;;5.38;;
53261;SDS011;39658;51.090;-1.786;2023-06-14T01:05:48;9.93;;;4.43;;
53261;SDS011;39658;51.090;-1.786;2023-06-14T01:08:22;12.60;;;4.60;;
53261;SDS011;39658;51.090;-1.786;2023-06-14T01:10:56;11.50;;;4.32;;
53261;SDS011;39658;51.090;-1.786;2023-06-14T01:13:31;7.40;;;4.43;;
53261;SDS011;39658;51.090;-1.786;2023-06-14T01:16:00;7.45;;;4.22;;
53261;SDS011;39658;51.090;-1.786;2023-06-14T01:18:27;6.72;;;3.67;;
53261;SDS011;39658;51.090;-1.786;2023-06-14T01:20:55;9.85;;;4.88;;
53261;SDS011;39658;51.090;-1.786;2023-06-14T01:23:23;7.82;;;3.88;;
53261;SDS011;39658;51.090;-1.786;2023-06-14T01:25:58;6.80;;;3.47;;
53261;SDS011;39658;51.090;-1.786;2023-06-14T01:28:28;8.18;;;3.35;;
53261;SDS011;39658;51.090;-1.786;2023-06-14T01:30:58;7.65;;;4.63;;
53261;SDS011;39658;51.090;-1.786;2023-06-14T01:33:29;8.05;;;2.95;;
53261;SDS011;39658;51.090;-1.786;2023-06-14T01:35:57;8.13;;;4.18;;
53261;SDS011;39658;51.090;-1.786;2023-06-14T01:38:27;7.30;;;4.22;;
53261;SDS011;39658;51.090;-1.786;2023-06-14T01:40:55;9.73;;;4.28;;
53261;SDS011;39658;51.090;-1.786;2023-06-14T01:43:24;16.90;;;4.30;;
53261;SDS011;39658;51.090;-1.786;2023-06-14T01:45:52;8.32;;;3.95;;
53261;SDS011;39658;51.090;-1.786;2023-06-14T01:48:20;7.85;;;4.45;;
53261;SDS011;39658;51.090;-1.786;2023-06-14T01:50:47;8.20;;;3.85;;
53261;SDS011;39658;51.090;-1.786;2023-06-14T01:53:15;7.65;;;3.40;;
53261;SDS011;39658;51.090;-1.786;2023-06-14T01:55:43;6.53;;;3.05;;
53261;SDS011;39658;51.090;-1.786;2023-06-14T01:58:13;7.10;;;3.53;;
53261;SDS011;39658;51.090;-1.786;2023-06-14T02:00:41;10.48;;;3.47;;
53261;SDS011;39658;51.090;-1.786;2023-06-14T02:03:10;7.82;;;3.83;;
53261;SDS011;39658;51.090;-1.786;2023-06-14T02:05:38;8.93;;;4.25;;
53261;SDS011;39658;51.090;-1.786;2023-06-14T02:08:05;8.02;;;3.75;;
53261;SDS011;39658;51.090;-1.786;2023-06-14T02:10:32;8.30;;;4.07;;
53261;SDS011;39658;51.090;-1.786;2023-06-14T02:13:00;5.85;;;3.28;;
53261;SDS011;39658;51.090;-1.786;2023-06-14T02:15:27;8.25;;;4.03;;
53261;SDS011;39658;51.090;-1.786;2023-06-14T02:17:59;8.77;;;3.30;;
53261;SDS011;39658;51.090;-1.786;2023-06-14T02:20:27;11.95;;;5.10;;
53261;SDS011;39658;51.090;-1.786;2023-06-14T02:22:54;5.45;;;2.63;;
53261;SDS011;39658;51.090;-1.786;2023-06-14T02:25:20;7.78;;;4.05;;
53261;SDS011;39658;51.090;-1.786;2023-06-14T02:27:47;5.85;;;3.03;;
53261;SDS011;39658;51.090;-1.786;2023-06-14T02:30:16;8.65;;;3.47;;
53261;SDS011;39658;51.090;-1.786;2023-06-14T02:32:43;11.18;;;3.97;;
53261;SDS011;39658;51.090;-1.786;2023-06-14T02:35:09;8.48;;;3.80;;
53261;SDS011;39658;51.090;-1.786;2023-06-14T02:37:36;7.63;;;3.42;;
53261;SDS011;39658;51.090;-1.786;2023-06-14T02:40:03;8.07;;;3.80;;
53261;SDS011;39658;51.090;-1.786;2023-06-14T02:42:32;9.32;;;3.90;;
53261;SDS011;39658;51.090;-1.786;2023-06-14T02:44:59;7.28;;;4.18;;
53261;SDS011;39658;51.090;-1.786;2023-06-14T02:47:28;6.65;;;3.00;;
53261;SDS011;39658;51.090;-1.786;2023-06-14T02:49:55;7.50;;;3.72;;
53261;SDS011;39658;51.090;-1.786;2023-06-14T02:52:22;9.45;;;3.40;;
53261;SDS011;39658;51.090;-1.786;2023-06-14T02:54:50;7.28;;;4.22;;
53261;SDS011;39658;51.090;-1.786;2023-06-14T02:57:17;8.48;;;3.63;;
53261;SDS011;39658;51.090;-1.786;2023-06-14T02:59:43;7.80;;;3.30;;
53261;SDS011;39658;51.090;-1.786;2023-06-14T03:02:10;8.70;;;3.33;;
53261;SDS011;39658;51.090;-1.786;2023-06-14T03:04:38;8.57;;;3.08;;
53261;SDS011;39658;51.090;-1.786;2023-06-14T03:07:06;5.53;;;2.45;;
53261;SDS011;39658;51.090;-1.786;2023-06-14T03:09:34;7.75;;;3.53;;
53261;SDS011;39658;51.090;-1.786;2023-06-14T03:12:02;10.15;;;4.03;;
53261;SDS011;39658;51.090;-1.786;2023-06-14T03:14:29;10.75;;;3.05;;
53261;SDS011;39658;51.090;-1.786;2023-06-14T03:16:56;6.78;;;3.25;;
53261;SDS011;39658;51.090;-1.786;2023-06-14T03:19:24;7.07;;;3.55;;
53261;SDS011;39658;51.090;-1.786;2023-06-14T03:21:53;8.93;;;3.20;;
53261;SDS011;39658;51.090;-1.786;2023-06-14T03:24:22;8.93;;;3.90;;
53261;SDS011;39658;51.090;-1.786;2023-06-14T03:26:48;8.20;;;2.88;;
53261;SDS011;39658;51.090;-1.786;2023-06-14T03:29:15;9.57;;;3.08;;
53261;SDS011;39658;51.090;-1.786;2023-06-14T03:31:56;6.05;;;3.80;;
53261;SDS011;39658;51.090;-1.786;2023-06-14T03:34:23;8.30;;;3.83;;
53261;SDS011;39658;51.090;-1.786;2023-06-14T03:36:50;9.05;;;4.22;;
53261;SDS011;39658;51.090;-1.786;2023-06-14T03:39:18;7.55;;;2.97;;
53261;SDS011;39658;51.090;-1.786;2023-06-14T03:41:45;6.53;;;2.90;;
53261;SDS011;39658;51.090;-1.786;2023-06-14T03:44:13;9.15;;;3.95;;
53261;SDS011;39658;51.090;-1.786;2023-06-14T03:49:08;6.20;;;2.67;;
53261;SDS011;39658;51.090;-1.786;2023-06-14T03:51:35;11.90;;;3.53;;
53261;SDS011;39658;51.090;-1.786;2023-06-14T03:54:03;5.72;;;2.70;;
53261;SDS011;39658;51.090;-1.786;2023-06-14T03:56:31;7.25;;;2.60;;
53261;SDS011;39658;51.090;-1.786;2023-06-14T03:58:57;5.93;;;2.47;;
53261;SDS011;39658;51.090;-1.786;2023-06-14T04:01:24;10.23;;;3.00;;
53261;SDS011;39658;51.090;-1.786;2023-06-14T04:03:55;11.75;;;3.38;;
53261;SDS011;39658;51.090;-1.786;2023-06-14T04:06:23;6.80;;;2.72;;
53261;SDS011;39658;51.090;-1.786;2023-06-14T04:08:56;7.13;;;3.22;;
53261;SDS011;39658;51.090;-1.786;2023-06-14T04:11:26;7.03;;;2.65;;
53261;SDS011;39658;51.090;-1.786;2023-06-14T04:13:54;4.85;;;2.53;;
53261;SDS011;39658;51.090;-1.786;2023-06-14T04:16:21;8.88;;;3.38;;
53261;SDS011;39658;51.090;-1.786;2023-06-14T04:18:48;4.35;;;2.30;;
53261;SDS011;39658;51.090;-1.786;2023-06-14T04:21:16;6.70;;;3.30;;
53261;SDS011;39658;51.090;-1.786;2023-06-14T04:23:43;8.00;;;2.22;;
53261;SDS011;39658;51.090;-1.786;2023-06-14T04:26:10;5.75;;;2.65;;
53261;SDS011;39658;51.090;-1.786;2023-06-14T04:28:38;6.80;;;2.20;;
53261;SDS011;39658;51.090;-1.786;2023-06-14T04:31:07;5.47;;;2.65;;
53261;SDS011;39658;51.090;-1.786;2023-06-14T04:33:35;6.53;;;2.95;;
53261;SDS011;39658;51.090;-1.786;2023-06-14T04:36:08;6.65;;;2.38;;
53261;SDS011;39658;51.090;-1.786;2023-06-14T04:38:35;7.50;;;2.80;;
53261;SDS011;39658;51.090;-1.786;2023-06-14T04:41:02;8.23;;;2.95;;
53261;SDS011;39658;51.090;-1.786;2023-06-14T04:43:29;7.38;;;2.67;;
53261;SDS011;39658;51.090;-1.786;2023-06-14T04:45:57;6.10;;;3.13;;
53261;SDS011;39658;51.090;-1.786;2023-06-14T04:48:25;8.18;;;3.40;;
53261;SDS011;39658;51.090;-1.786;2023-06-14T04:50:51;9.13;;;3.10;;
53261;SDS011;39658;51.090;-1.786;2023-06-14T04:53:19;6.85;;;2.25;;
53261;SDS011;39658;51.090;-1.786;2023-06-14T04:55:48;8.70;;;2.85;;
53261;SDS011;39658;51.090;-1.786;2023-06-14T04:58:15;12.73;;;2.40;;
53261;SDS011;39658;51.090;-1.786;2023-06-14T05:00:42;5.93;;;2.45;;
53261;SDS011;39658;51.090;-1.786;2023-06-14T05:03:09;7.30;;;2.53;;
53261;SDS011;39658;51.090;-1.786;2023-06-14T05:05:40;5.43;;;1.70;;
53261;SDS011;39658;51.090;-1.786;2023-06-14T05:08:07;5.10;;;2.30;;
53261;SDS011;39658;51.090;-1.786;2023-06-14T05:10:34;6.15;;;2.15;;
53261;SDS011;39658;51.090;-1.786;2023-06-14T05:13:01;9.50;;;2.63;;
53261;SDS011;39658;51.090;-1.786;2023-06-14T05:15:28;5.70;;;2.88;;
53261;SDS011;39658;51.090;-1.786;2023-06-14T05:17:55;5.05;;;2.00;;
53261;SDS011;39658;51.090;-1.786;2023-06-14T05:20:22;6.43;;;2.78;;
53261;SDS011;39658;51.090;-1.786;2023-06-14T05:22:51;6.25;;;2.13;;
53261;SDS011;39658;51.090;-1.786;2023-06-14T05:25:18;5.20;;;2.70;;
53261;SDS011;39658;51.090;-1.786;2023-06-14T05:27:45;6.78;;;2.40;;
53261;SDS011;39658;51.090;-1.786;2023-06-14T05:30:13;6.13;;;3.25;;
53261;SDS011;39658;51.090;-1.786;2023-06-14T05:32:40;5.22;;;1.80;;
53261;SDS011;39658;51.090;-1.786;2023-06-14T05:35:07;6.20;;;1.90;;
53261;SDS011;39658;51.090;-1.786;2023-06-14T05:37:35;7.45;;;2.50;;
53261;SDS011;39658;51.090;-1.786;2023-06-14T05:40:04;6.30;;;2.75;;
53261;SDS011;39658;51.090;-1.786;2023-06-14T05:42:32;3.45;;;1.75;;
53261;SDS011;39658;51.090;-1.786;2023-06-14T05:44:59;9.38;;;2.85;;
53261;SDS011;39658;51.090;-1.786;2023-06-14T05:47:26;6.60;;;2.60;;
53261;SDS011;39658;51.090;-1.786;2023-06-14T05:49:52;5.45;;;1.92;;
53261;SDS011;39658;51.090;-1.786;2023-06-14T05:52:19;4.20;;;2.38;;
53261;SDS011;39658;51.090;-1.786;2023-06-14T05:54:46;7.18;;;2.63;;
53261;SDS011;39658;51.090;-1.786;2023-06-14T05:57:15;6.57;;;1.90;;
53261;SDS011;39658;51.090;-1.786;2023-06-14T05:59:42;5.32;;;1.60;;
53261;SDS011;39658;51.090;-1.786;2023-06-14T06:02:09;4.75;;;2.33;;
53261;SDS011;39658;51.090;-1.786;2023-06-14T06:04:35;5.47;;;2.55;;
53261;SDS011;39658;51.090;-1.786;2023-06-14T06:07:02;5.90;;;2.50;;
53261;SDS011;39658;51.090;-1.786;2023-06-14T06:09:30;3.95;;;2.15;;
53261;SDS011;39658;51.090;-1.786;2023-06-14T06:11:57;4.88;;;2.08;;
53261;SDS011;39658;51.090;-1.786;2023-06-14T06:14:25;3.75;;;1.90;;
53261;SDS011;39658;51.090;-1.786;2023-06-14T06:16:52;5.03;;;1.77;;
53261;SDS011;39658;51.090;-1.786;2023-06-14T06:19:19;5.22;;;2.88;;
53261;SDS011;39658;51.090;-1.786;2023-06-14T06:21:46;8.70;;;2.70;;
53261;SDS011;39658;51.090;-1.786;2023-06-14T06:24:13;5.20;;;2.42;;
53261;SDS011;39658;51.090;-1.786;2023-06-14T06:26:40;3.72;;;1.50;;
53261;SDS011;39658;51.090;-1.786;2023-06-14T06:29:07;5.13;;;2.40;;
53261;SDS011;39658;51.090;-1.786;2023-06-14T06:31:35;5.18;;;2.15;;
53261;SDS011;39658;51.090;-1.786;2023-06-14T06:34:02;5.38;;;2.03;;
53261;SDS011;39658;51.090;-1.786;2023-06-14T06:36:29;5.43;;;1.98;;
53261;SDS011;39658;51.090;-1.786;2023-06-14T06:38:55;6.15;;;2.22;;
53261;SDS011;39658;51.090;-1.786;2023-06-14T06:41:22;5.43;;;2.00;;
53261;SDS011;39658;51.090;-1.786;2023-06-14T06:43:49;7.40;;;2.22;;
53261;SDS011;39658;51.090;-1.786;2023-06-14T06:46:16;4.78;;;2.28;;
53261;SDS011;39658;51.090;-1.786;2023-06-14T06:48:45;5.65;;;2.40;;
53261;SDS011;39658;51.090;-1.786;2023-06-14T06:51:12;5.45;;;2.00;;
53261;SDS011;39658;51.090;-1.786;2023-06-14T06:53:41;3.38;;;1.25;;
53261;SDS011;39658;51.090;-1.786;2023-06-14T06:56:09;5.45;;;2.35;;
53261;SDS011;39658;51.090;-1.786;2023-06-14T06:58:35;4.93;;;2.10;;
53261;SDS011;39658;51.090;-1.786;2023-06-14T07:01:02;4.35;;;2.38;;
53261;SDS011;39658;51.090;-1.786;2023-06-14T07:03:29;3.72;;;1.67;;
53261;SDS011;39658;51.090;-1.786;2023-06-14T07:05:57;2.92;;;1.15;;
53261;SDS011;39658;51.090;-1.786;2023-06-14T07:08:24;5.35;;;2.42;;
53261;SDS011;39658;51.090;-1.786;2023-06-14T07:10:52;10.55;;;2.15;;
53261;SDS011;39658;51.090;-1.786;2023-06-14T07:13:18;4.78;;;2.08;;
53261;SDS011;39658;51.090;-1.786;2023-06-14T07:15:45;4.20;;;2.05;;
53261;SDS011;39658;51.090;-1.786;2023-06-14T07:18:12;6.55;;;2.17;;
53261;SDS011;39658;51.090;-1.786;2023-06-14T07:20:39;8.60;;;2.38;;
53261;SDS011;39658;51.090;-1.786;2023-06-14T07:23:08;7.00;;;2.13;;
53261;SDS011;39658;51.090;-1.786;2023-06-14T07:25:34;4.53;;;1.80;;
53261;SDS011;39658;51.090;-1.786;2023-06-14T07:28:01;4.43;;;1.73;;
53261;SDS011;39658;51.090;-1.786;2023-06-14T07:30:28;4.90;;;1.80;;
53261;SDS011;39658;51.090;-1.786;2023-06-14T07:32:55;7.70;;;2.08;;
53261;SDS011;39658;51.090;-1.786;2023-06-14T07:35:22;6.60;;;1.83;;
53261;SDS011;39658;51.090;-1.786;2023-06-14T07:37:48;6.38;;;1.98;;
53261;SDS011;39658;51.090;-1.786;2023-06-14T07:40:17;4.90;;;1.88;;
53261;SDS011;39658;51.090;-1.786;2023-06-14T07:42:44;4.43;;;1.95;;
53261;SDS011;39658;51.090;-1.786;2023-06-14T07:45:11;6.47;;;1.80;;
53261;SDS011;39658;51.090;-1.786;2023-06-14T07:47:39;5.60;;;2.00;;
53261;SDS011;39658;51.090;-1.786;2023-06-14T07:50:06;4.90;;;1.70;;
53261;SDS011;39658;51.090;-1.786;2023-06-14T07:52:33;6.18;;;1.95;;
53261;SDS011;39658;51.090;-1.786;2023-06-14T07:55:03;4.82;;;1.63;;
53261;SDS011;39658;51.090;-1.786;2023-06-14T07:57:34;9.32;;;2.28;;
53261;SDS011;39658;51.090;-1.786;2023-06-14T08:02:31;5.53;;;1.70;;
53261;SDS011;39658;51.090;-1.786;2023-06-14T08:04:57;4.70;;;2.00;;
53261;SDS011;39658;51.090;-1.786;2023-06-14T08:07:24;4.90;;;2.13;;
53261;SDS011;39658;51.090;-1.786;2023-06-14T08:09:51;4.90;;;2.65;;
53261;SDS011;39658;51.090;-1.786;2023-06-14T08:12:18;7.93;;;1.92;;
53261;SDS011;39658;51.090;-1.786;2023-06-14T08:14:46;4.75;;;1.60;;
53261;SDS011;39658;51.090;-1.786;2023-06-14T08:17:12;8.95;;;1.60;;
53261;SDS011;39658;51.090;-1.786;2023-06-14T08:19:39;2.63;;;1.05;;
53261;SDS011;39658;51.090;-1.786;2023-06-14T08:22:06;3.78;;;1.70;;
53261;SDS011;39658;51.090;-1.786;2023-06-14T08:24:33;5.07;;;1.42;;
53261;SDS011;39658;51.090;-1.786;2023-06-14T08:26:59;7.13;;;2.30;;
53261;SDS011;39658;51.090;-1.786;2023-06-14T08:29:27;8.48;;;2.10;;
53261;SDS011;39658;51.090;-1.786;2023-06-14T08:31:57;4.18;;;1.40;;
53261;SDS011;39658;51.090;-1.786;2023-06-14T08:34:25;4.10;;;1.90;;
53261;SDS011;39658;51.090;-1.786;2023-06-14T08:36:51;5.35;;;2.25;;
53261;SDS011;39658;51.090;-1.786;2023-06-14T08:39:18;4.15;;;1.25;;
53261;SDS011;39658;51.090;-1.786;2023-06-14T08:41:46;3.85;;;1.60;;
53261;SDS011;39658;51.090;-1.786;2023-06-14T08:44:13;4.70;;;2.15;;
53261;SDS011;39658;51.090;-1.786;2023-06-14T08:46:40;6.35;;;1.95;;
53261;SDS011;39658;51.090;-1.786;2023-06-14T08:49:10;7.65;;;2.20;;
53261;SDS011;39658;51.090;-1.786;2023-06-14T08:51:39;6.88;;;1.55;;
53261;SDS011;39658;51.090;-1.786;2023-06-14T08:54:06;6.72;;;1.75;;
53261;SDS011;39658;51.090;-1.786;2023-06-14T08:56:34;6.85;;;2.15;;
53261;SDS011;39658;51.090;-1.786;2023-06-14T08:59:06;4.85;;;1.95;;
53261;SDS011;39658;51.090;-1.786;2023-06-14T09:01:36;8.15;;;2.03;;
53261;SDS011;39658;51.090;-1.786;2023-06-14T09:04:03;5.95;;;2.03;;
53261;SDS011;39658;51.090;-1.786;2023-06-14T09:06:32;5.80;;;2.15;;
53261;SDS011;39658;51.090;-1.786;2023-06-14T09:08:59;7.78;;;2.60;;
53261;SDS011;39658;51.090;-1.786;2023-06-14T09:11:26;4.43;;;1.90;;
53261;SDS011;39658;51.090;-1.786;2023-06-14T09:13:53;5.47;;;2.00;;
53261;SDS011;39658;51.090;-1.786;2023-06-14T09:16:19;11.02;;;2.30;;
53261;SDS011;39658;51.090;-1.786;2023-06-14T09:18:47;5.53;;;2.10;;
53261;SDS011;39658;51.090;-1.786;2023-06-14T09:21:14;8.02;;;2.13;;
53261;SDS011;39658;51.090;-1.786;2023-06-14T09:23:43;3.63;;;2.22;;
53261;SDS011;39658;51.090;-1.786;2023-06-14T09:26:12;6.75;;;2.33;;
53261;SDS011;39658;51.090;-1.786;2023-06-14T09:28:42;5.80;;;2.30;;
53261;SDS011;39658;51.090;-1.786;2023-06-14T09:31:10;6.85;;;2.53;;
53261;SDS011;39658;51.090;-1.786;2023-06-14T09:33:37;5.05;;;2.03;;
53261;SDS011;39658;51.090;-1.786;2023-06-14T09:36:03;5.43;;;2.20;;
53261;SDS011;39658;51.090;-1.786;2023-06-14T09:38:33;4.43;;;2.10;;
53261;SDS011;39658;51.090;-1.786;2023-06-14T09:41:02;7.95;;;2.15;;
53261;SDS011;39658;51.090;-1.786;2023-06-14T09:43:30;7.10;;;2.45;;
53261;SDS011;39658;51.090;-1.786;2023-06-14T09:45:59;7.03;;;2.70;;
53261;SDS011;39658;51.090;-1.786;2023-06-14T09:48:26;5.63;;;2.63;;
53261;SDS011;39658;51.090;-1.786;2023-06-14T09:50:53;4.90;;;2.33;;
53261;SDS011;39658;51.090;-1.786;2023-06-14T09:53:24;6.68;;;2.72;;
53261;SDS011;39658;51.090;-1.786;2023-06-14T09:55:54;9.63;;;2.58;;
53261;SDS011;39658;51.090;-1.786;2023-06-14T09:58:25;5.47;;;2.28;;
53261;SDS011;39658;51.090;-1.786;2023-06-14T10:00:52;5.05;;;2.55;;
53261;SDS011;39658;51.090;-1.786;2023-06-14T10:03:22;5.15;;;2.20;;
53261;SDS011;39658;51.090;-1.786;2023-06-14T10:05:53;6.20;;;2.55;;
53261;SDS011;39658;51.090;-1.786;2023-06-14T10:08:27;9.27;;;2.70;;
53261;SDS011;39658;51.090;-1.786;2023-06-14T10:10:58;7.93;;;3.08;;
53261;SDS011;39658;51.090;-1.786;2023-06-14T10:13:27;8.60;;;2.50;;
53261;SDS011;39658;51.090;-1.786;2023-06-14T10:15:58;5.80;;;2.78;;
53261;SDS011;39658;51.090;-1.786;2023-06-14T10:18:34;6.72;;;2.75;;
53261;SDS011;39658;51.090;-1.786;2023-06-14T10:21:12;7.95;;;2.90;;
53261;SDS011;39658;51.090;-1.786;2023-06-14T10:23:43;5.28;;;2.67;;
53261;SDS011;39658;51.090;-1.786;2023-06-14T10:26:17;6.15;;;2.65;;
53261;SDS011;39658;51.090;-1.786;2023-06-14T10:28:56;7.50;;;2.72;;
53261;SDS011;39658;51.090;-1.786;2023-06-14T10:31:39;5.53;;;3.05;;
53261;SDS011;39658;51.090;-1.786;2023-06-14T10:34:07;5.82;;;3.15;;
53261;SDS011;39658;51.090;-1.786;2023-06-14T10:36:34;5.63;;;3.25;;
53261;SDS011;39658;51.090;-1.786;2023-06-14T10:39:03;6.45;;;3.00;;
53261;SDS011;39658;51.090;-1.786;2023-06-14T10:41:34;6.32;;;3.13;;
53261;SDS011;39658;51.090;-1.786;2023-06-14T10:47:09;8.13;;;3.00;;
53261;SDS011;39658;51.090;-1.786;2023-06-14T10:49:41;8.70;;;3.33;;
53261;SDS011;39658;51.090;-1.786;2023-06-14T10:52:13;8.43;;;3.60;;
53261;SDS011;39658;51.090;-1.786;2023-06-14T10:57:36;6.22;;;3.33;;
53261;SDS011;39658;51.090;-1.786;2023-06-14T11:00:07;6.72;;;3.28;;
53261;SDS011;39658;51.090;-1.786;2023-06-14T11:03:06;9.55;;;3.10;;
53261;SDS011;39658;51.090;-1.786;2023-06-14T11:05:57;6.18;;;3.35;;
53261;SDS011;39658;51.090;-1.786;2023-06-14T11:08:39;5.85;;;3.33;;
53261;SDS011;39658;51.090;-1.786;2023-06-14T11:11:29;6.68;;;3.53;;
53261;SDS011;39658;51.090;-1.786;2023-06-14T11:13:59;7.43;;;3.58;;
53261;SDS011;39658;51.090;-1.786;2023-06-14T11:16:28;5.72;;;3.28;;
53261;SDS011;39658;51.090;-1.786;2023-06-14T11:18:57;5.82;;;2.95;;
53261;SDS011;39658;51.090;-1.786;2023-06-14T11:21:24;6.53;;;3.22;;
53261;SDS011;39658;51.090;-1.786;2023-06-14T11:23:56;7.07;;;3.20;;
53261;SDS011;39658;51.090;-1.786;2023-06-14T11:26:26;8.18;;;3.10;;
53261;SDS011;39658;51.090;-1.786;2023-06-14T11:28:56;7.15;;;3.47;;
53261;SDS011;39658;51.090;-1.786;2023-06-14T11:31:24;8.32;;;3.42;;
53261;SDS011;39658;51.090;-1.786;2023-06-14T11:33:54;6.70;;;3.42;;
53261;SDS011;39658;51.090;-1.786;2023-06-14T11:36:22;11.73;;;2.65;;
53261;SDS011;39658;51.090;-1.786;2023-06-14T11:38:49;7.00;;;3.47;;
53261;SDS011;39658;51.090;-1.786;2023-06-14T11:41:15;6.63;;;4.03;;
53261;SDS011;39658;51.090;-1.786;2023-06-14T11:43:42;5.93;;;3.50;;
53261;SDS011;39658;51.090;-1.786;2023-06-14T11:46:12;6.93;;;3.10;;
53261;SDS011;39658;51.090;-1.786;2023-06-14T11:48:40;5.10;;;2.83;;
53261;SDS011;39658;51.090;-1.786;2023-06-14T11:51:09;8.90;;;3.13;;
53261;SDS011;39658;51.090;-1.786;2023-06-14T11:53:37;7.35;;;3.58;;
53261;SDS011;39658;51.090;-1.786;2023-06-14T11:56:04;12.50;;;3.97;;
53261;SDS011;39658;51.090;-1.786;2023-06-14T11:58:31;8.60;;;3.53;;
53261;SDS011;39658;51.090;-1.786;2023-06-14T12:00:58;6.90;;;3.40;;
53261;SDS011;39658;51.090;-1.786;2023-06-14T12:03:25;8.73;;;4.25;;
53261;SDS011;39658;51.090;-1.786;2023-06-14T12:06:01;6.35;;;3.60;;
53261;SDS011;39658;51.090;-1.786;2023-06-14T12:08:33;7.13;;;3.65;;
53261;SDS011;39658;51.090;-1.786;2023-06-14T12:11:10;7.55;;;3.60;;
53261;SDS011;39658;51.090;-1.786;2023-06-14T12:13:38;9.85;;;4.63;;
53261;SDS011;39658;51.090;-1.786;2023-06-14T12:16:06;8.27;;;3.25;;
53261;SDS011;39658;51.090;-1.786;2023-06-14T12:18:34;6.65;;;2.97;;
53261;SDS011;39658;51.090;-1.786;2023-06-14T12:21:02;6.75;;;3.53;;
53261;SDS011;39658;51.090;-1.786;2023-06-14T12:23:45;9.38;;;4.18;;
53261;SDS011;39658;51.090;-1.786;2023-06-14T12:26:13;7.85;;;4.43;;
53261;SDS011;39658;51.090;-1.786;2023-06-14T12:28:41;7.05;;;3.92;;
53261;SDS011;39658;51.090;-1.786;2023-06-14T12:31:08;9.15;;;3.72;;
53261;SDS011;39658;51.090;-1.786;2023-06-14T12:33:35;12.02;;;3.92;;
53261;SDS011;39658;51.090;-1.786;2023-06-14T12:36:03;10.35;;;4.05;;
53261;SDS011;39658;51.090;-1.786;2023-06-14T12:38:30;5.60;;;3.45;;
53261;SDS011;39658;51.090;-1.786;2023-06-14T12:40:58;7.47;;;4.13;;
53261;SDS011;39658;51.090;-1.786;2023-06-14T12:43:25;6.90;;;3.63;;
53261;SDS011;39658;51.090;-1.786;2023-06-14T12:45:52;10.52;;;3.88;;
53261;SDS011;39658;51.090;-1.786;2023-06-14T12:48:19;6.93;;;3.60;;
53261;SDS011;39658;51.090;-1.786;2023-06-14T12:50:46;9.68;;;4.00;;
53261;SDS011;39658;51.090;-1.786;2023-06-14T12:53:13;9.95;;;4.43;;
53261;SDS011;39658;51.090;-1.786;2023-06-14T12:55:40;5.57;;;3.60;;
53261;SDS011;39658;51.090;-1.786;2023-06-14T12:58:08;6.20;;;4.07;;
53261;SDS011;39658;51.090;-1.786;2023-06-14T13:00:35;7.20;;;3.65;;
53261;SDS011;39658;51.090;-1.786;2023-06-14T13:03:01;6.85;;;3.58;;
53261;SDS011;39658;51.090;-1.786;2023-06-14T13:05:28;6.25;;;3.88;;
53261;SDS011;39658;51.090;-1.786;2023-06-14T13:07:56;10.98;;;4.50;;
53261;SDS011;39658;51.090;-1.786;2023-06-14T13:10:23;9.77;;;4.40;;
53261;SDS011;39658;51.090;-1.786;2023-06-14T13:12:50;7.35;;;3.92;;
53261;SDS011;39658;51.090;-1.786;2023-06-14T13:15:18;7.55;;;3.92;;
53261;SDS011;39658;51.090;-1.786;2023-06-14T13:17:45;10.52;;;3.83;;
53261;SDS011;39658;51.090;-1.786;2023-06-14T13:20:14;7.55;;;3.88;;
53261;SDS011;39658;51.090;-1.786;2023-06-14T13:22:41;10.95;;;3.90;;
53261;SDS011;39658;51.090;-1.786;2023-06-14T13:25:08;6.65;;;4.55;;
53261;SDS011;39658;51.090;-1.786;2023-06-14T13:27:35;8.73;;;3.97;;
53261;SDS011;39658;51.090;-1.786;2023-06-14T13:30:02;11.00;;;4.25;;
53261;SDS011;39658;51.090;-1.786;2023-06-14T13:32:32;7.00;;;4.10;;
53261;SDS011;39658;51.090;-1.786;2023-06-14T13:34:59;11.25;;;4.68;;
53261;SDS011;39658;51.090;-1.786;2023-06-14T13:37:26;8.80;;;4.82;;
53261;SDS011;39658;51.090;-1.786;2023-06-14T13:39:52;6.63;;;4.38;;
53261;SDS011;39658;51.090;-1.786;2023-06-14T13:42:20;6.85;;;3.83;;
53261;SDS011;39658;51.090;-1.786;2023-06-14T13:44:47;8.88;;;4.43;;
53261;SDS011;39658;51.090;-1.786;2023-06-14T13:47:14;7.13;;;4.20;;
53261;SDS011;39658;51.090;-1.786;2023-06-14T13:49:42;7.05;;;4.38;;
53261;SDS011;39658;51.090;-1.786;2023-06-14T13:52:09;12.57;;;4.72;;
53261;SDS011;39658;51.090;-1.786;2023-06-14T13:54:36;7.63;;;4.28;;
53261;SDS011;39658;51.090;-1.786;2023-06-14T13:57:03;8.90;;;4.63;;
53261;SDS011;39658;51.090;-1.786;2023-06-14T13:59:30;8.95;;;4.65;;
53261;SDS011;39658;51.090;-1.786;2023-06-14T14:01:57;9.95;;;4.25;;
53261;SDS011;39658;51.090;-1.786;2023-06-14T14:04:24;6.43;;;3.72;;
53261;SDS011;39658;51.090;-1.786;2023-06-14T14:06:52;10.20;;;4.40;;
53261;SDS011;39658;51.090;-1.786;2023-06-14T14:09:19;9.13;;;4.22;;
53261;SDS011;39658;51.090;-1.786;2023-06-14T14:11:46;13.20;;;4.32;;
53261;SDS011;39658;51.090;-1.786;2023-06-14T14:14:13;6.93;;;4.30;;
53261;SDS011;39658;51.090;-1.786;2023-06-14T14:16:39;9.85;;;4.85;;
53261;SDS011;39658;51.090;-1.786;2023-06-14T14:19:06;8.05;;;4.95;;
53261;SDS011;39658;51.090;-1.786;2023-06-14T14:21:33;7.80;;;4.25;;
53261;SDS011;39658;51.090;-1.786;2023-06-14T14:24:02;8.60;;;4.38;;
53261;SDS011;39658;51.090;-1.786;2023-06-14T14:26:29;11.98;;;4.32;;
53261;SDS011;39658;51.090;-1.786;2023-06-14T14:28:56;8.48;;;4.57;;
53261;SDS011;39658;51.090;-1.786;2023-06-14T14:31:22;8.73;;;4.50;;
53261;SDS011;39658;51.090;-1.786;2023-06-14T14:33:49;8.30;;;5.05;;
53261;SDS011;39658;51.090;-1.786;2023-06-14T14:36:16;6.75;;;4.35;;
53261;SDS011;39658;51.090;-1.786;2023-06-14T14:38:43;10.00;;;4.97;;
53261;SDS011;39658;51.090;-1.786;2023-06-14T14:41:11;8.25;;;4.00;;
53261;SDS011;39658;51.090;-1.786;2023-06-14T14:43:38;6.90;;;3.85;;
53261;SDS011;39658;51.090;-1.786;2023-06-14T14:46:05;9.13;;;4.22;;
53261;SDS011;39658;51.090;-1.786;2023-06-14T14:48:32;7.13;;;4.80;;
53261;SDS011;39658;51.090;-1.786;2023-06-14T14:50:58;7.30;;;4.50;;